sensor_id;sensor_type;location;lat;lon;timestamp;pressure;altitude;pressure_sealevel;temperature;humidity
68807;BME280;55800;54.272;18.558;2023-06-22T00:00:44;101034.34;;;20.70;62.10
68807;BME280;55800;54.272;18.558;2023-06-22T00:03:30;101028.28;;;20.66;61.58
68807;BME280;55800;54.272;18.558;2023-06-22T00:06:00;101032.84;;;20.66;60.80
68807;BME280;55800;54.272;18.558;2023-06-22T00:08:29;101037.44;;;20.65;61.27
68807;BME280;55800;54.272;18.558;2023-06-22T00:10:59;101038.53;;;20.63;61.64
68807;BME280;55800;54.272;18.558;2023-06-22T00:13:29;101039.63;;;20.60;63.08
68807;BME280;55800;54.272;18.558;2023-06-22T00:15:58;101043.97;;;20.63;60.80
68807;BME280;55800;54.272;18.558;2023-06-22T00:18:28;101031.59;;;20.59;60.59
68807;BME280;55800;54.272;18.558;2023-06-22T00:20:59;101040.72;;;20.58;61.19
68807;BME280;55800;54.272;18.558;2023-06-22T00:23:29;101038.13;;;20.56;60.88
68807;BME280;55800;54.272;18.558;2023-06-22T00:26:03;101036.38;;;20.55;61.76
68807;BME280;55800;54.272;18.558;2023-06-22T00:28:33;101048.38;;;20.53;63.17
68807;BME280;55800;54.272;18.558;2023-06-22T00:31:02;101051.31;;;20.50;63.33
68807;BME280;55800;54.272;18.558;2023-06-22T00:33:32;101049.06;;;20.44;64.15
68807;BME280;55800;54.272;18.558;2023-06-22T00:36:01;101055.59;;;20.41;62.98
68807;BME280;55800;54.272;18.558;2023-06-22T00:38:30;101053.84;;;20.40;62.93
68807;BME280;55800;54.272;18.558;2023-06-22T00:41:00;101051.38;;;20.37;63.16
68807;BME280;55800;54.272;18.558;2023-06-22T00:43:30;101050.22;;;20.29;62.71
68807;BME280;55800;54.272;18.558;2023-06-22T00:46:02;101065.88;;;20.25;64.07
68807;BME280;55800;54.272;18.558;2023-06-22T00:48:32;101066.50;;;20.29;62.74
68807;BME280;55800;54.272;18.558;2023-06-22T00:51:01;101052.84;;;20.17;63.90
68807;BME280;55800;54.272;18.558;2023-06-22T00:53:31;101054.03;;;20.13;65.26
68807;BME280;55800;54.272;18.558;2023-06-22T00:56:03;101064.38;;;20.08;64.84
68807;BME280;55800;54.272;18.558;2023-06-22T00:58:37;101058.94;;;20.08;64.69
68807;BME280;55800;54.272;18.558;2023-06-22T01:01:10;101067.06;;;20.08;64.48
68807;BME280;55800;54.272;18.558;2023-06-22T01:03:39;101062.09;;;20.02;65.58
68807;BME280;55800;54.272;18.558;2023-06-22T01:06:13;101070.72;;;19.96;65.59
68807;BME280;55800;54.272;18.558;2023-06-22T01:08:51;101066.38;;;19.94;66.17
68807;BME280;55800;54.272;18.558;2023-06-22T01:11:28;101065.72;;;19.90;66.17
68807;BME280;55800;54.272;18.558;2023-06-22T01:14:06;101062.72;;;19.82;66.70
68807;BME280;55800;54.272;18.558;2023-06-22T01:16:40;101064.69;;;19.80;66.93
68807;BME280;55800;54.272;18.558;2023-06-22T01:19:20;101058.72;;;19.75;66.90
68807;BME280;55800;54.272;18.558;2023-06-22T01:21:52;101049.59;;;19.76;66.44
68807;BME280;55800;54.272;18.558;2023-06-22T01:24:27;101060.88;;;19.70;67.38
68807;BME280;55800;54.272;18.558;2023-06-22T01:27:09;101065.56;;;19.68;66.58
68807;BME280;55800;54.272;18.558;2023-06-22T01:29:47;101059.63;;;19.63;67.70
68807;BME280;55800;54.272;18.558;2023-06-22T01:32:17;101060.81;;;19.59;67.66
68807;BME280;55800;54.272;18.558;2023-06-22T01:34:48;101064.94;;;19.52;68.01
68807;BME280;55800;54.272;18.558;2023-06-22T01:37:19;101065.91;;;19.51;68.12
68807;BME280;55800;54.272;18.558;2023-06-22T01:39:52;101054.22;;;19.51;67.66
68807;BME280;55800;54.272;18.558;2023-06-22T01:42:25;101058.88;;;19.49;67.13
68807;BME280;55800;54.272;18.558;2023-06-22T01:44:56;101051.59;;;19.49;67.48
68807;BME280;55800;54.272;18.558;2023-06-22T01:47:26;101055.28;;;19.48;66.77
68807;BME280;55800;54.272;18.558;2023-06-22T01:49:56;101056.94;;;19.38;68.68
68807;BME280;55800;54.272;18.558;2023-06-22T01:52:26;101061.47;;;19.37;68.52
68807;BME280;55800;54.272;18.558;2023-06-22T01:54:56;101050.00;;;19.34;68.64
68807;BME280;55800;54.272;18.558;2023-06-22T01:57:27;101069.25;;;19.29;68.95
68807;BME280;55800;54.272;18.558;2023-06-22T02:00:02;101065.56;;;19.30;68.65
68807;BME280;55800;54.272;18.558;2023-06-22T02:02:45;101063.28;;;19.24;70.04
68807;BME280;55800;54.272;18.558;2023-06-22T02:05:19;101066.00;;;19.12;71.10
68807;BME280;55800;54.272;18.558;2023-06-22T02:07:52;101067.75;;;19.13;70.05
68807;BME280;55800;54.272;18.558;2023-06-22T02:10:24;101068.50;;;19.15;70.48
68807;BME280;55800;54.272;18.558;2023-06-22T02:12:58;101072.94;;;19.16;69.81
68807;BME280;55800;54.272;18.558;2023-06-22T02:15:29;101074.25;;;19.10;70.51
68807;BME280;55800;54.272;18.558;2023-06-22T02:18:00;101078.03;;;19.08;71.04
68807;BME280;55800;54.272;18.558;2023-06-22T02:20:30;101079.88;;;19.07;71.58
68807;BME280;55800;54.272;18.558;2023-06-22T02:22:59;101087.56;;;19.01;72.22
68807;BME280;55800;54.272;18.558;2023-06-22T02:25:28;101086.69;;;19.00;70.74
68807;BME280;55800;54.272;18.558;2023-06-22T02:27:58;101088.53;;;19.00;71.33
68807;BME280;55800;54.272;18.558;2023-06-22T02:33:47;101092.22;;;18.99;71.29
68807;BME280;55800;54.272;18.558;2023-06-22T02:36:19;101093.41;;;18.95;72.35
68807;BME280;55800;54.272;18.558;2023-06-22T02:38:53;101094.38;;;18.94;72.24
68807;BME280;55800;54.272;18.558;2023-06-22T02:41:24;101099.88;;;18.92;72.88
68807;BME280;55800;54.272;18.558;2023-06-22T02:43:53;101108.91;;;18.93;71.71
68807;BME280;55800;54.272;18.558;2023-06-22T02:46:22;101112.16;;;18.98;72.49
68807;BME280;55800;54.272;18.558;2023-06-22T02:48:54;101119.31;;;18.99;71.93
68807;BME280;55800;54.272;18.558;2023-06-22T02:51:23;101127.56;;;18.97;72.30
68807;BME280;55800;54.272;18.558;2023-06-22T02:53:53;101119.53;;;18.96;72.55
68807;BME280;55800;54.272;18.558;2023-06-22T02:56:29;101130.38;;;18.96;73.25
68807;BME280;55800;54.272;18.558;2023-06-22T02:59:01;101125.72;;;18.98;71.56
68807;BME280;55800;54.272;18.558;2023-06-22T03:01:36;101122.78;;;19.01;72.21
68807;BME280;55800;54.272;18.558;2023-06-22T03:04:23;101109.13;;;19.02;71.72
68807;BME280;55800;54.272;18.558;2023-06-22T03:06:53;101116.09;;;19.06;71.14
68807;BME280;55800;54.272;18.558;2023-06-22T03:09:22;101111.50;;;19.07;71.47
68807;BME280;55800;54.272;18.558;2023-06-22T03:11:51;101131.25;;;19.09;71.13
68807;BME280;55800;54.272;18.558;2023-06-22T03:14:21;101129.09;;;19.14;71.25
68807;BME280;55800;54.272;18.558;2023-06-22T03:16:52;101136.16;;;19.16;71.71
68807;BME280;55800;54.272;18.558;2023-06-22T03:19:23;101135.28;;;19.16;72.30
68807;BME280;55800;54.272;18.558;2023-06-22T03:21:52;101146.13;;;19.16;72.86
68807;BME280;55800;54.272;18.558;2023-06-22T03:24:21;101155.25;;;19.15;73.81
68807;BME280;55800;54.272;18.558;2023-06-22T03:26:51;101149.59;;;19.18;73.37
68807;BME280;55800;54.272;18.558;2023-06-22T03:29:20;101151.88;;;19.24;74.06
68807;BME280;55800;54.272;18.558;2023-06-22T03:31:50;101156.88;;;19.30;73.38
68807;BME280;55800;54.272;18.558;2023-06-22T03:34:19;101165.41;;;19.38;72.59
68807;BME280;55800;54.272;18.558;2023-06-22T03:36:53;101159.31;;;19.47;72.38
68807;BME280;55800;54.272;18.558;2023-06-22T03:39:23;101160.81;;;19.51;72.44
68807;BME280;55800;54.272;18.558;2023-06-22T03:41:53;101161.50;;;19.55;72.90
68807;BME280;55800;54.272;18.558;2023-06-22T03:44:22;101160.19;;;19.60;72.42
68807;BME280;55800;54.272;18.558;2023-06-22T03:46:51;101166.16;;;19.65;72.38
68807;BME280;55800;54.272;18.558;2023-06-22T03:49:21;101163.22;;;19.68;72.59
68807;BME280;55800;54.272;18.558;2023-06-22T03:51:51;101170.59;;;19.79;71.95
68807;BME280;55800;54.272;18.558;2023-06-22T03:54:20;101166.72;;;19.83;70.94
68807;BME280;55800;54.272;18.558;2023-06-22T03:56:49;101183.41;;;19.89;71.07
68807;BME280;55800;54.272;18.558;2023-06-22T03:59:19;101178.66;;;19.93;71.17
68807;BME280;55800;54.272;18.558;2023-06-22T04:01:47;101190.56;;;19.90;71.82
68807;BME280;55800;54.272;18.558;2023-06-22T04:04:17;101193.09;;;19.93;71.02
68807;BME280;55800;54.272;18.558;2023-06-22T04:06:47;101194.38;;;20.00;70.60
68807;BME280;55800;54.272;18.558;2023-06-22T04:09:17;101200.56;;;20.02;70.84
68807;BME280;55800;54.272;18.558;2023-06-22T04:11:47;101208.16;;;20.10;70.45
68807;BME280;55800;54.272;18.558;2023-06-22T04:14:16;101216.81;;;20.15;70.59
68807;BME280;55800;54.272;18.558;2023-06-22T04:16:45;101226.31;;;20.22;70.43
68807;BME280;55800;54.272;18.558;2023-06-22T04:19:16;101219.03;;;20.23;70.41
68807;BME280;55800;54.272;18.558;2023-06-22T04:21:45;101215.13;;;20.27;70.14
68807;BME280;55800;54.272;18.558;2023-06-22T04:24:18;101211.41;;;20.28;69.66
68807;BME280;55800;54.272;18.558;2023-06-22T04:26:47;101215.88;;;20.29;69.72
68807;BME280;55800;54.272;18.558;2023-06-22T04:29:16;101218.78;;;20.26;69.89
68807;BME280;55800;54.272;18.558;2023-06-22T04:31:45;101210.44;;;20.29;69.17
68807;BME280;55800;54.272;18.558;2023-06-22T04:34:19;101216.63;;;20.31;69.19
68807;BME280;55800;54.272;18.558;2023-06-22T04:36:47;101214.13;;;20.28;69.38
68807;BME280;55800;54.272;18.558;2023-06-22T04:39:18;101216.63;;;20.31;68.78
68807;BME280;55800;54.272;18.558;2023-06-22T04:41:47;101213.47;;;20.37;68.47
68807;BME280;55800;54.272;18.558;2023-06-22T04:44:18;101214.88;;;20.42;68.38
68807;BME280;55800;54.272;18.558;2023-06-22T04:46:52;101216.47;;;20.45;68.06
68807;BME280;55800;54.272;18.558;2023-06-22T04:49:28;101213.53;;;20.48;68.15
68807;BME280;55800;54.272;18.558;2023-06-22T04:52:01;101214.44;;;20.48;67.93
68807;BME280;55800;54.272;18.558;2023-06-22T04:54:33;101214.84;;;20.55;67.94
68807;BME280;55800;54.272;18.558;2023-06-22T04:57:03;101216.97;;;20.62;67.74
68807;BME280;55800;54.272;18.558;2023-06-22T04:59:33;101209.25;;;20.69;67.67
68807;BME280;55800;54.272;18.558;2023-06-22T05:02:03;101206.06;;;20.75;67.05
68807;BME280;55800;54.272;18.558;2023-06-22T05:04:33;101215.97;;;20.76;67.23
68807;BME280;55800;54.272;18.558;2023-06-22T05:07:04;101216.31;;;20.71;67.81
68807;BME280;55800;54.272;18.558;2023-06-22T05:09:35;101205.19;;;20.74;67.13
68807;BME280;55800;54.272;18.558;2023-06-22T05:12:05;101211.28;;;20.78;67.44
68807;BME280;55800;54.272;18.558;2023-06-22T05:14:38;101211.69;;;20.84;66.85
68807;BME280;55800;54.272;18.558;2023-06-22T05:17:07;101220.47;;;20.88;66.47
68807;BME280;55800;54.272;18.558;2023-06-22T05:19:43;101222.94;;;20.91;66.58
68807;BME280;55800;54.272;18.558;2023-06-22T05:22:16;101219.53;;;21.00;66.07
68807;BME280;55800;54.272;18.558;2023-06-22T05:24:47;101220.09;;;21.05;65.96
68807;BME280;55800;54.272;18.558;2023-06-22T05:27:16;101220.84;;;21.07;65.37
68807;BME280;55800;54.272;18.558;2023-06-22T05:29:46;101227.25;;;21.06;65.43
68807;BME280;55800;54.272;18.558;2023-06-22T05:32:15;101228.75;;;21.10;65.67
68807;BME280;55800;54.272;18.558;2023-06-22T05:34:44;101225.53;;;21.05;64.69
68807;BME280;55800;54.272;18.558;2023-06-22T05:37:14;101231.59;;;21.09;64.75
68807;BME280;55800;54.272;18.558;2023-06-22T05:39:43;101237.28;;;21.06;64.44
68807;BME280;55800;54.272;18.558;2023-06-22T05:42:14;101229.88;;;21.08;64.39
68807;BME280;55800;54.272;18.558;2023-06-22T05:44:43;101240.97;;;21.05;63.84
68807;BME280;55800;54.272;18.558;2023-06-22T05:47:12;101239.41;;;21.13;63.82
68807;BME280;55800;54.272;18.558;2023-06-22T05:49:42;101252.81;;;21.16;63.93
68807;BME280;55800;54.272;18.558;2023-06-22T05:52:11;101238.72;;;21.22;63.63
68807;BME280;55800;54.272;18.558;2023-06-22T05:54:40;101236.00;;;21.22;63.41
68807;BME280;55800;54.272;18.558;2023-06-22T05:57:10;101234.91;;;21.25;63.60
68807;BME280;55800;54.272;18.558;2023-06-22T05:59:41;101242.47;;;21.32;63.34
68807;BME280;55800;54.272;18.558;2023-06-22T06:02:10;101251.66;;;21.42;63.33
68807;BME280;55800;54.272;18.558;2023-06-22T06:04:40;101249.28;;;21.38;62.67
68807;BME280;55800;54.272;18.558;2023-06-22T06:07:09;101252.13;;;21.36;62.70
68807;BME280;55800;54.272;18.558;2023-06-22T06:09:39;101260.06;;;21.39;62.42
68807;BME280;55800;54.272;18.558;2023-06-22T06:12:08;101266.47;;;21.38;62.25
68807;BME280;55800;54.272;18.558;2023-06-22T06:14:38;101264.28;;;21.43;62.32
68807;BME280;55800;54.272;18.558;2023-06-22T06:17:08;101256.41;;;21.51;61.94
68807;BME280;55800;54.272;18.558;2023-06-22T06:19:38;101247.13;;;21.54;61.96
68807;BME280;55800;54.272;18.558;2023-06-22T06:22:07;101236.75;;;21.59;61.84
68807;BME280;55800;54.272;18.558;2023-06-22T06:24:36;101248.50;;;21.59;61.40
68807;BME280;55800;54.272;18.558;2023-06-22T06:27:05;101239.25;;;21.62;61.56
68807;BME280;55800;54.272;18.558;2023-06-22T06:29:36;101242.22;;;21.70;61.52
68807;BME280;55800;54.272;18.558;2023-06-22T06:32:05;101234.56;;;21.75;61.08
68807;BME280;55800;54.272;18.558;2023-06-22T06:34:36;101231.03;;;21.86;61.07
68807;BME280;55800;54.272;18.558;2023-06-22T06:37:06;101230.28;;;21.84;60.89
68807;BME280;55800;54.272;18.558;2023-06-22T06:39:35;101241.66;;;21.89;60.93
68807;BME280;55800;54.272;18.558;2023-06-22T06:42:05;101229.09;;;21.99;60.43
68807;BME280;55800;54.272;18.558;2023-06-22T06:44:35;101224.63;;;22.09;60.23
68807;BME280;55800;54.272;18.558;2023-06-22T06:47:05;101230.19;;;22.18;60.20
68807;BME280;55800;54.272;18.558;2023-06-22T06:49:36;101235.41;;;22.21;58.91
68807;BME280;55800;54.272;18.558;2023-06-22T06:52:06;101247.19;;;22.22;59.42
68807;BME280;55800;54.272;18.558;2023-06-22T06:54:36;101261.53;;;22.24;58.19
68807;BME280;55800;54.272;18.558;2023-06-22T06:57:05;101260.16;;;22.18;57.64
68807;BME280;55800;54.272;18.558;2023-06-22T06:59:35;101260.53;;;22.25;57.97
68807;BME280;55800;54.272;18.558;2023-06-22T07:02:04;101265.25;;;22.23;57.51
68807;BME280;55800;54.272;18.558;2023-06-22T07:04:33;101263.75;;;22.19;57.33
68807;BME280;55800;54.272;18.558;2023-06-22T07:07:04;101263.53;;;22.22;57.40
68807;BME280;55800;54.272;18.558;2023-06-22T07:09:34;101259.28;;;22.29;57.32
68807;BME280;55800;54.272;18.558;2023-06-22T07:12:03;101262.03;;;22.40;57.37
68807;BME280;55800;54.272;18.558;2023-06-22T07:14:33;101258.44;;;22.50;57.21
68807;BME280;55800;54.272;18.558;2023-06-22T07:17:02;101270.22;;;22.51;57.21
68807;BME280;55800;54.272;18.558;2023-06-22T07:19:33;101263.03;;;22.50;56.75
68807;BME280;55800;54.272;18.558;2023-06-22T07:22:04;101269.22;;;22.52;57.06
68807;BME280;55800;54.272;18.558;2023-06-22T07:24:34;101274.28;;;22.57;56.74
68807;BME280;55800;54.272;18.558;2023-06-22T07:27:04;101261.41;;;22.70;57.37
68807;BME280;55800;54.272;18.558;2023-06-22T07:29:34;101267.97;;;22.78;56.31
68807;BME280;55800;54.272;18.558;2023-06-22T07:32:04;101267.47;;;22.84;56.20
68807;BME280;55800;54.272;18.558;2023-06-22T07:34:34;101273.56;;;22.88;55.46
68807;BME280;55800;54.272;18.558;2023-06-22T07:37:05;101277.63;;;22.93;55.06
68807;BME280;55800;54.272;18.558;2023-06-22T07:39:34;101279.47;;;22.93;54.58
68807;BME280;55800;54.272;18.558;2023-06-22T07:42:06;101273.41;;;23.00;54.82
68807;BME280;55800;54.272;18.558;2023-06-22T07:44:35;101269.16;;;23.07;54.44
68807;BME280;55800;54.272;18.558;2023-06-22T07:47:04;101282.16;;;23.15;54.46
68807;BME280;55800;54.272;18.558;2023-06-22T07:49:34;101279.16;;;23.18;54.59
68807;BME280;55800;54.272;18.558;2023-06-22T07:52:05;101276.78;;;23.24;54.64
68807;BME280;55800;54.272;18.558;2023-06-22T07:54:35;101288.94;;;23.32;54.56
68807;BME280;55800;54.272;18.558;2023-06-22T07:57:05;101284.72;;;23.39;54.47
68807;BME280;55800;54.272;18.558;2023-06-22T07:59:34;101286.44;;;23.40;53.97
68807;BME280;55800;54.272;18.558;2023-06-22T08:02:04;101293.38;;;23.44;53.25
68807;BME280;55800;54.272;18.558;2023-06-22T08:04:34;101295.72;;;23.48;53.79
68807;BME280;55800;54.272;18.558;2023-06-22T08:07:05;101301.16;;;23.48;52.31
68807;BME280;55800;54.272;18.558;2023-06-22T08:09:35;101299.47;;;23.47;52.96
68807;BME280;55800;54.272;18.558;2023-06-22T08:12:05;101297.91;;;23.54;53.51
68807;BME280;55800;54.272;18.558;2023-06-22T08:14:37;101305.34;;;23.63;53.60
68807;BME280;55800;54.272;18.558;2023-06-22T08:17:09;101292.16;;;23.68;53.29
68807;BME280;55800;54.272;18.558;2023-06-22T08:19:39;101286.75;;;23.78;53.57
68807;BME280;55800;54.272;18.558;2023-06-22T08:22:10;101288.97;;;23.84;52.13
68807;BME280;55800;54.272;18.558;2023-06-22T08:24:39;101293.78;;;23.91;52.98
68807;BME280;55800;54.272;18.558;2023-06-22T08:27:09;101301.91;;;24.02;52.73
68807;BME280;55800;54.272;18.558;2023-06-22T08:29:40;101298.53;;;24.10;53.13
68807;BME280;55800;54.272;18.558;2023-06-22T08:32:10;101293.31;;;24.07;50.17
68807;BME280;55800;54.272;18.558;2023-06-22T08:34:39;101285.13;;;24.07;50.91
68807;BME280;55800;54.272;18.558;2023-06-22T08:37:11;101289.06;;;24.14;52.07
68807;BME280;55800;54.272;18.558;2023-06-22T08:39:41;101291.72;;;24.25;52.24
68807;BME280;55800;54.272;18.558;2023-06-22T08:42:10;101289.47;;;24.30;50.90
68807;BME280;55800;54.272;18.558;2023-06-22T08:44:40;101296.63;;;24.31;50.19
68807;BME280;55800;54.272;18.558;2023-06-22T08:47:09;101300.16;;;24.22;49.44
68807;BME280;55800;54.272;18.558;2023-06-22T08:49:38;101294.84;;;24.21;48.92
68807;BME280;55800;54.272;18.558;2023-06-22T08:52:08;101294.59;;;24.24;49.24
68807;BME280;55800;54.272;18.558;2023-06-22T08:54:38;101296.94;;;24.28;49.17
68807;BME280;55800;54.272;18.558;2023-06-22T08:57:08;101300.09;;;24.33;49.22
68807;BME280;55800;54.272;18.558;2023-06-22T08:59:37;101303.56;;;24.35;49.53
68807;BME280;55800;54.272;18.558;2023-06-22T09:02:07;101292.63;;;24.35;48.71
68807;BME280;55800;54.272;18.558;2023-06-22T09:04:36;101288.03;;;24.36;49.23
68807;BME280;55800;54.272;18.558;2023-06-22T09:07:06;101286.34;;;24.44;49.24
68807;BME280;55800;54.272;18.558;2023-06-22T09:09:37;101290.38;;;24.40;48.23
68807;BME280;55800;54.272;18.558;2023-06-22T09:12:07;101283.06;;;24.50;50.30
68807;BME280;55800;54.272;18.558;2023-06-22T09:14:37;101289.56;;;24.49;49.03
68807;BME280;55800;54.272;18.558;2023-06-22T09:17:06;101281.94;;;24.53;49.48
68807;BME280;55800;54.272;18.558;2023-06-22T09:19:36;101281.38;;;24.59;49.02
68807;BME280;55800;54.272;18.558;2023-06-22T09:22:06;101278.91;;;24.56;47.51
68807;BME280;55800;54.272;18.558;2023-06-22T09:24:35;101298.66;;;24.59;48.39
68807;BME280;55800;54.272;18.558;2023-06-22T09:27:06;101289.91;;;24.65;48.75
68807;BME280;55800;54.272;18.558;2023-06-22T09:29:36;101298.16;;;24.75;49.53
68807;BME280;55800;54.272;18.558;2023-06-22T09:32:06;101289.69;;;24.78;48.84
68807;BME280;55800;54.272;18.558;2023-06-22T09:34:35;101283.66;;;24.84;48.81
68807;BME280;55800;54.272;18.558;2023-06-22T09:37:06;101287.56;;;24.91;49.35
68807;BME280;55800;54.272;18.558;2023-06-22T09:39:35;101280.81;;;24.95;48.64
68807;BME280;55800;54.272;18.558;2023-06-22T09:42:07;101280.53;;;24.98;48.18
68807;BME280;55800;54.272;18.558;2023-06-22T09:44:36;101281.38;;;24.99;48.12
68807;BME280;55800;54.272;18.558;2023-06-22T09:47:07;101284.44;;;25.05;48.09
68807;BME280;55800;54.272;18.558;2023-06-22T09:49:36;101282.41;;;25.07;47.25
68807;BME280;55800;54.272;18.558;2023-06-22T09:52:15;101284.16;;;25.08;47.31
68807;BME280;55800;54.272;18.558;2023-06-22T09:54:45;101273.94;;;25.10;46.97
68807;BME280;55800;54.272;18.558;2023-06-22T09:57:15;101274.09;;;25.18;47.81
68807;BME280;55800;54.272;18.558;2023-06-22T09:59:45;101278.84;;;25.16;46.41
68807;BME280;55800;54.272;18.558;2023-06-22T10:02:17;101278.41;;;25.21;47.42
68807;BME280;55800;54.272;18.558;2023-06-22T10:04:47;101276.84;;;25.28;46.90
68807;BME280;55800;54.272;18.558;2023-06-22T10:07:16;101287.34;;;25.32;46.56
68807;BME280;55800;54.272;18.558;2023-06-22T10:09:46;101264.31;;;25.35;46.69
68807;BME280;55800;54.272;18.558;2023-06-22T10:12:17;101280.31;;;25.30;45.42
68807;BME280;55800;54.272;18.558;2023-06-22T10:14:46;101290.97;;;25.33;46.03
68807;BME280;55800;54.272;18.558;2023-06-22T10:17:16;101283.47;;;25.35;46.41
68807;BME280;55800;54.272;18.558;2023-06-22T10:19:45;101273.13;;;25.38;45.29
68807;BME280;55800;54.272;18.558;2023-06-22T10:22:15;101276.56;;;25.40;45.34
68807;BME280;55800;54.272;18.558;2023-06-22T10:24:45;101278.34;;;25.51;45.56
68807;BME280;55800;54.272;18.558;2023-06-22T10:27:16;101281.50;;;25.56;45.44
68807;BME280;55800;54.272;18.558;2023-06-22T10:29:46;101281.63;;;25.64;46.25
68807;BME280;55800;54.272;18.558;2023-06-22T10:32:15;101276.88;;;25.66;44.88
68807;BME280;55800;54.272;18.558;2023-06-22T10:34:44;101281.91;;;25.71;44.71
68807;BME280;55800;54.272;18.558;2023-06-22T10:37:13;101277.75;;;25.76;43.16
68807;BME280;55800;54.272;18.558;2023-06-22T10:39:43;101278.31;;;25.80;44.27
68807;BME280;55800;54.272;18.558;2023-06-22T10:42:12;101276.44;;;25.80;44.84
68807;BME280;55800;54.272;18.558;2023-06-22T10:44:43;101270.09;;;25.89;45.64
68807;BME280;55800;54.272;18.558;2023-06-22T10:47:12;101272.81;;;25.99;44.78
68807;BME280;55800;54.272;18.558;2023-06-22T10:49:42;101271.09;;;25.98;44.47
68807;BME280;55800;54.272;18.558;2023-06-22T10:52:11;101268.59;;;26.04;44.13
68807;BME280;55800;54.272;18.558;2023-06-22T10:54:42;101258.66;;;26.13;45.30
68807;BME280;55800;54.272;18.558;2023-06-22T10:57:11;101266.56;;;26.25;45.07
68807;BME280;55800;54.272;18.558;2023-06-22T10:59:42;101273.91;;;26.35;45.12
68807;BME280;55800;54.272;18.558;2023-06-22T11:02:11;101274.75;;;26.35;43.82
68807;BME280;55800;54.272;18.558;2023-06-22T11:04:40;101260.19;;;26.35;43.41
68807;BME280;55800;54.272;18.558;2023-06-22T11:07:10;101263.63;;;26.37;43.76
68807;BME280;55800;54.272;18.558;2023-06-22T11:09:39;101272.13;;;26.43;44.23
68807;BME280;55800;54.272;18.558;2023-06-22T11:12:08;101268.34;;;26.54;44.54
68807;BME280;55800;54.272;18.558;2023-06-22T11:14:39;101260.53;;;26.59;43.12
68807;BME280;55800;54.272;18.558;2023-06-22T11:17:09;101266.41;;;26.64;44.38
68807;BME280;55800;54.272;18.558;2023-06-22T11:19:39;101252.09;;;26.70;44.31
68807;BME280;55800;54.272;18.558;2023-06-22T11:22:10;101262.59;;;26.84;44.04
68807;BME280;55800;54.272;18.558;2023-06-22T11:24:40;101256.81;;;26.87;43.92
68807;BME280;55800;54.272;18.558;2023-06-22T11:27:09;101257.19;;;26.92;43.62
68807;BME280;55800;54.272;18.558;2023-06-22T11:29:38;101250.09;;;26.99;44.25
68807;BME280;55800;54.272;18.558;2023-06-22T11:32:09;101258.25;;;27.08;44.40
68807;BME280;55800;54.272;18.558;2023-06-22T11:34:42;101259.19;;;27.17;44.42
68807;BME280;55800;54.272;18.558;2023-06-22T11:37:11;101251.44;;;27.30;43.95
68807;BME280;55800;54.272;18.558;2023-06-22T11:39:41;101249.72;;;27.29;42.62
68807;BME280;55800;54.272;18.558;2023-06-22T11:42:14;101255.22;;;27.29;41.46
68807;BME280;55800;54.272;18.558;2023-06-22T11:44:43;101248.69;;;27.30;42.05
68807;BME280;55800;54.272;18.558;2023-06-22T11:47:14;101253.19;;;27.31;41.80
68807;BME280;55800;54.272;18.558;2023-06-22T11:49:43;101253.31;;;27.30;40.70
68807;BME280;55800;54.272;18.558;2023-06-22T11:52:13;101247.53;;;27.33;41.09
68807;BME280;55800;54.272;18.558;2023-06-22T11:54:42;101255.75;;;27.33;39.18
68807;BME280;55800;54.272;18.558;2023-06-22T11:57:11;101254.63;;;27.35;40.00
68807;BME280;55800;54.272;18.558;2023-06-22T11:59:41;101244.50;;;27.36;37.95
68807;BME280;55800;54.272;18.558;2023-06-22T12:02:10;101248.69;;;27.30;39.03
68807;BME280;55800;54.272;18.558;2023-06-22T12:04:40;101246.81;;;27.31;38.98
68807;BME280;55800;54.272;18.558;2023-06-22T12:07:10;101249.41;;;27.32;38.82
68807;BME280;55800;54.272;18.558;2023-06-22T12:09:39;101247.25;;;27.36;38.96
68807;BME280;55800;54.272;18.558;2023-06-22T12:12:09;101238.94;;;27.45;39.63
68807;BME280;55800;54.272;18.558;2023-06-22T12:14:38;101239.69;;;27.55;39.71
68807;BME280;55800;54.272;18.558;2023-06-22T12:17:08;101240.78;;;27.62;39.54
68807;BME280;55800;54.272;18.558;2023-06-22T12:19:37;101234.81;;;27.67;37.35
68807;BME280;55800;54.272;18.558;2023-06-22T12:22:07;101226.94;;;27.72;38.79
68807;BME280;55800;54.272;18.558;2023-06-22T12:24:37;101229.56;;;27.73;38.31
68807;BME280;55800;54.272;18.558;2023-06-22T12:27:06;101234.59;;;27.78;38.51
68807;BME280;55800;54.272;18.558;2023-06-22T12:29:35;101219.50;;;27.82;38.45
68807;BME280;55800;54.272;18.558;2023-06-22T12:32:05;101228.97;;;27.88;38.07
68807;BME280;55800;54.272;18.558;2023-06-22T12:34:35;101221.94;;;27.93;39.47
68807;BME280;55800;54.272;18.558;2023-06-22T12:37:04;101223.78;;;28.02;38.63
68807;BME280;55800;54.272;18.558;2023-06-22T12:39:35;101226.91;;;28.07;38.98
68807;BME280;55800;54.272;18.558;2023-06-22T12:42:05;101239.69;;;28.16;39.49
68807;BME280;55800;54.272;18.558;2023-06-22T12:44:38;101228.56;;;28.26;40.38
68807;BME280;55800;54.272;18.558;2023-06-22T12:47:08;101219.69;;;28.40;40.32
68807;BME280;55800;54.272;18.558;2023-06-22T12:49:38;101218.72;;;28.49;39.61
68807;BME280;55800;54.272;18.558;2023-06-22T12:52:10;101225.47;;;28.54;39.81
68807;BME280;55800;54.272;18.558;2023-06-22T12:54:41;101227.72;;;28.59;38.21
68807;BME280;55800;54.272;18.558;2023-06-22T12:57:22;101224.41;;;28.55;39.50
68807;BME280;55800;54.272;18.558;2023-06-22T12:59:52;101219.22;;;28.52;38.22